Time;durP1;ratioP1;P1;durP2;ratioP2;P2;SDS_P1;SDS_P2;PMS_P1;PMS_P2;Temp;Humidity;BMP_temperature;BMP_pressure;BME280_temperature;BME280_humidity;BME280_pressure;Samples;Min_cycle;Max_cycle;Signal;HPM_P1;HPM_P2
2020/12/25 00:02:11;;;;;;;22.45;17.75;;;;;;;23.57;23.97;94130.50;5056543;28;20443;-55
2020/12/25 00:04:39;;;;;;;20.98;17.23;;;;;;;24.60;22.83;94112.16;5061340;28;20044;-58
2020/12/25 00:07:07;;;;;;;22.52;18.08;;;;;;;22.91;24.78;94116.38;5073971;28;20071;-54
2020/12/25 00:09:34;;;;;;;24.02;18.77;;;;;;;22.33;25.60;94122.28;5074005;28;20059;-53
2020/12/25 00:12:01;;;;;;;25.98;20.00;;;;;;;22.20;25.77;94118.38;5073774;28;20374;-54
2020/12/25 00:14:28;;;;;;;23.85;18.88;;;;;;;21.85;26.50;94119.47;5074120;28;20051;-57
2020/12/25 00:16:58;;;;;;;22.95;19.00;;;;;;;21.71;26.82;94124.66;5073295;28;20366;-55
2020/12/25 00:19:26;;;;;;;346.77;255.68;;;;;;;21.69;26.44;94132.22;5073887;28;20056;-55
2020/12/25 00:21:53;;;;;;;51.13;38.05;;;;;;;21.54;26.87;94129.38;5074194;28;20056;-52
2020/12/25 00:24:20;;;;;;;32.25;25.08;;;;;;;21.25;26.93;94130.13;5074116;28;20053;-54
2020/12/25 00:26:47;;;;;;;27.38;21.75;;;;;;;21.20;27.13;94138.38;5071799;28;20056;-51
2020/12/25 00:29:14;;;;;;;25.52;20.67;;;;;;;21.40;27.00;94139.84;5073616;28;20044;-54
2020/12/25 00:31:41;;;;;;;26.88;20.85;;;;;;;21.44;27.06;94151.28;5073609;28;20047;-55
2020/12/25 00:34:13;;;;;;;28.77;21.08;;;;;;;21.45;27.02;94133.44;5056368;28;20053;-57
2020/12/25 00:36:42;;;;;;;27.83;21.02;;;;;;;21.22;27.48;94150.19;5053285;28;20075;-53
2020/12/25 00:39:14;;;;;;;27.58;21.15;;;;;;;20.98;27.71;94144.50;5064937;28;20055;-56
2020/12/25 00:41:47;;;;;;;27.65;20.85;;;;;;;22.32;25.78;94147.41;5071516;28;20052;-56
2020/12/25 00:44:14;;;;;;;25.08;20.30;;;;;;;21.49;26.87;94137.66;5035634;28;20367;-56
2020/12/25 00:46:42;;;;;;;24.38;19.17;;;;;;;21.26;27.22;94136.97;5053102;28;20051;-54
2020/12/25 00:49:13;;;;;;;23.92;19.52;;;;;;;22.11;25.93;94127.41;5043425;28;20059;-53
2020/12/25 00:51:40;;;;;;;22.92;19.17;;;;;;;21.65;26.82;94136.75;5053187;28;20063;-54
2020/12/25 00:54:07;;;;;;;22.98;19.38;;;;;;;21.39;26.93;94145.53;5053619;28;20049;-54
2020/12/25 00:56:54;;;;;;;23.40;18.88;;;;;;;21.43;26.93;94141.78;5052792;28;20435;-57
2020/12/25 00:59:30;;;;;;;23.60;18.30;;;;;;;22.45;25.90;94146.03;5069119;28;20068;-55
2020/12/25 01:01:57;;;;;;;25.20;19.80;;;;;;;22.92;25.25;94150.66;5053538;28;20057;-55
2020/12/25 01:04:24;;;;;;;24.80;19.17;;;;;;;23.26;24.41;94139.84;5053505;28;20049;-55
2020/12/25 01:06:51;;;;;;;30.27;21.92;;;;;;;21.53;26.34;94135.81;5053669;28;20048;-53
2020/12/25 01:09:18;;;;;;;27.52;22.45;;;;;;;22.24;25.63;94141.25;5064554;28;20055;-56
2020/12/25 01:11:45;;;;;;;24.55;19.52;;;;;;;22.26;25.66;94136.31;5073653;28;20765;-54
2020/12/25 01:14:12;;;;;;;28.33;21.10;;;;;;;21.40;26.86;94126.53;5073423;28;20083;-55
2020/12/25 01:16:39;;;;;;;28.95;20.38;;;;;;;21.34;26.87;94130.66;5073595;28;20083;-53
2020/12/25 01:19:06;;;;;;;26.65;20.17;;;;;;;21.18;27.10;94124.69;5074290;28;20052;-55
2020/12/25 01:21:33;;;;;;;27.85;21.30;;;;;;;21.02;27.59;94116.09;5056478;28;20065;-53
2020/12/25 01:24:00;;;;;;;27.88;21.48;;;;;;;20.99;27.57;94122.13;5057467;28;20451;-55
2020/12/25 01:26:28;;;;;;;25.30;20.65;;;;;;;20.93;27.73;94119.00;5057384;28;20050;-54
2020/12/25 01:29:02;;;;;;;25.88;21.58;;;;;;;20.70;27.86;94116.38;5065358;28;20064;-53
2020/12/25 01:31:29;;;;;;;24.85;20.10;;;;;;;20.71;28.18;94115.25;5077065;28;20057;-56
2020/12/25 01:33:56;;;;;;;26.98;19.77;;;;;;;20.86;27.72;94113.59;5061774;28;20040;-55
2020/12/25 01:36:24;;;;;;;25.33;20.05;;;;;;;20.94;27.64;94110.69;5057354;28;20040;-53
2020/12/25 01:38:51;;;;;;;26.80;20.08;;;;;;;20.86;27.68;94113.59;5072538;28;20048;-52
2020/12/25 01:41:18;;;;;;;23.77;19.73;;;;;;;20.54;27.93;94108.53;5077104;28;20430;-55
2020/12/25 01:43:45;;;;;;;25.15;19.92;;;;;;;20.76;27.71;94101.66;5076981;28;20363;-53
2020/12/25 01:46:14;;;;;;;21.75;17.95;;;;;;;21.27;26.94;94111.91;5077060;28;20040;-55
2020/12/25 01:48:42;;;;;;;22.63;18.25;;;;;;;21.43;26.62;94104.56;5058721;28;20053;-54
2020/12/25 01:51:13;;;;;;;22.80;18.80;;;;;;;21.27;26.63;94101.28;5059532;28;20052;-57
2020/12/25 01:53:41;;;;;;;23.08;18.35;;;;;;;21.22;26.95;94112.22;5076657;28;20353;-57
2020/12/25 01:56:08;;;;;;;23.67;18.95;;;;;;;21.58;26.43;94107.38;5059169;28;20055;-54
2020/12/25 01:58:36;;;;;;;23.00;17.58;;;;;;;21.78;26.18;94098.13;5058791;28;20059;-54
2020/12/25 02:01:04;;;;;;;23.85;18.13;;;;;;;21.52;26.59;94099.72;5076758;28;20455;-55
2020/12/25 02:03:31;;;;;;;22.67;18.98;;;;;;;21.08;27.30;94099.50;5065857;28;20055;-52
2020/12/25 02:05:58;;;;;;;22.17;18.00;;;;;;;21.00;27.27;94105.81;5076691;28;20041;-53
2020/12/25 02:08:26;;;;;;;23.83;18.75;;;;;;;18.72;30.69;94096.16;5073759;28;20463;-58
2020/12/25 02:10:53;;;;;;;25.05;19.27;;;;;;;16.52;34.75;94093.50;5063174;28;20055;-60
2020/12/25 02:13:20;;;;;;;29.17;20.48;;;;;;;16.32;35.87;94104.91;5075795;28;20044;-58
2020/12/25 02:15:47;;;;;;;27.52;19.88;;;;;;;15.24;37.92;94083.91;5075922;28;20060;-57
2020/12/25 02:18:14;;;;;;;22.75;16.48;;;;;;;15.37;38.02;94096.03;5076169;28;20060;-58
2020/12/25 02:20:42;;;;;;;25.40;19.55;;;;;;;15.33;37.93;94091.72;5070695;28;20044;-55
2020/12/25 02:23:09;;;;;;;25.08;18.75;;;;;;;14.87;38.93;94093.44;5056371;28;20075;-52
2020/12/25 02:25:36;;;;;;;28.48;19.45;;;;;;;14.95;38.97;94094.47;5056339;28;20048;-55
2020/12/25 02:28:03;;;;;;;30.90;20.95;;;;;;;14.33;40.27;94093.22;5056160;28;20056;-55
2020/12/25 02:30:30;;;;;;;26.10;19.60;;;;;;;14.85;39.21;94094.88;5075036;28;20051;-57
2020/12/25 02:32:57;;;;;;;27.98;19.20;;;;;;;14.16;40.26;94101.94;5068991;28;20447;-54
2020/12/25 02:35:24;;;;;;;25.67;18.48;;;;;;;14.25;40.38;94107.16;5055989;28;20052;-55
2020/12/25 02:37:51;;;;;;;29.95;19.83;;;;;;;14.17;40.64;94106.09;5055858;28;20053;-57
2020/12/25 02:40:18;;;;;;;28.58;19.85;;;;;;;14.16;41.05;94096.69;5073487;28;20447;-53
2020/12/25 02:42:45;;;;;;;26.52;18.55;;;;;;;14.62;40.10;94099.63;5076274;28;20371;-53
2020/12/25 02:45:12;;;;;;;25.50;18.23;;;;;;;17.69;33.49;94090.16;5061607;28;20049;-53
2020/12/25 02:47:41;;;;;;;25.73;18.33;;;;;;;19.55;29.98;94078.31;5056084;28;20759;-56
2020/12/25 02:50:08;;;;;;;22.85;18.05;;;;;;;20.56;28.54;94079.75;5046179;28;20057;-56
2020/12/25 02:52:35;;;;;;;28.05;20.20;;;;;;;20.51;28.18;94076.59;5056302;28;20060;-53
2020/12/25 02:55:02;;;;;;;22.58;18.45;;;;;;;21.51;26.95;94078.81;5055707;28;20057;-52
2020/12/25 02:57:31;;;;;;;27.75;20.20;;;;;;;21.36;26.79;94061.94;5055865;28;20107;-57
2020/12/25 02:59:58;;;;;;;19.20;16.55;;;;;;;21.93;25.74;94062.56;5061137;28;20052;-54
2020/12/25 03:02:25;;;;;;;19.50;15.63;;;;;;;22.43;24.76;94068.38;5058001;28;20057;-53
2020/12/25 03:04:52;;;;;;;20.75;16.02;;;;;;;23.34;24.03;94050.72;5066654;28;20049;-56
2020/12/25 03:07:19;;;;;;;20.63;16.42;;;;;;;22.26;25.31;94055.69;5075657;28;20045;-54
2020/12/25 03:09:46;;;;;;;20.55;16.40;;;;;;;21.37;26.17;94054.72;5070492;28;20041;-53
2020/12/25 03:12:13;;;;;;;19.77;14.00;;;;;;;21.97;25.85;94052.72;5055467;28;20049;-53
2020/12/25 03:14:40;;;;;;;18.15;14.82;;;;;;;22.04;25.06;94052.03;5055335;28;20056;-53
2020/12/25 03:17:07;;;;;;;19.83;15.82;;;;;;;20.99;26.65;94050.38;5055451;28;20045;-55
2020/12/25 03:19:34;;;;;;;20.67;15.43;;;;;;;20.69;27.36;94045.78;5064965;28;20055;-56
2020/12/25 03:22:01;;;;;;;21.23;16.88;;;;;;;20.42;27.90;94044.22;5075122;28;20052;-54
2020/12/25 03:24:28;;;;;;;19.50;15.02;;;;;;;20.67;27.47;94037.41;5057889;28;20056;-56
2020/12/25 03:26:55;;;;;;;18.30;15.60;;;;;;;20.98;26.81;94035.56;5055318;28;20049;-53
2020/12/25 03:29:22;;;;;;;20.65;15.40;;;;;;;21.13;26.95;94037.28;5061724;28;20490;-55
2020/12/25 03:31:49;;;;;;;19.90;16.15;;;;;;;20.85;26.69;94038.44;5055002;28;20360;-53
2020/12/25 03:34:17;;;;;;;21.20;15.70;;;;;;;20.52;27.49;94028.47;5072459;28;20055;-53
2020/12/25 03:36:44;;;;;;;19.33;15.85;;;;;;;20.50;27.59;94040.56;5056163;28;20056;-55
2020/12/25 03:39:11;;;;;;;19.95;15.93;;;;;;;20.69;27.25;94034.41;5060949;28;20438;-55
2020/12/25 03:41:38;;;;;;;19.73;15.85;;;;;;;20.56;27.34;94026.66;5074029;28;20059;-51
2020/12/25 03:44:05;;;;;;;21.55;15.63;;;;;;;20.76;27.23;94027.28;5074782;28;20045;-53
2020/12/25 03:46:36;;;;;;;19.73;16.13;;;;;;;20.63;27.48;94036.59;5074970;28;20049;-52
2020/12/25 03:49:06;;;;;;;20.98;16.33;;;;;;;21.06;26.72;94031.88;5074158;28;20049;-52
2020/12/25 03:51:33;;;;;;;21.80;16.48;;;;;;;21.31;26.43;94038.28;5074539;28;20336;-54
2020/12/25 03:54:00;;;;;;;20.30;15.70;;;;;;;20.56;27.29;94031.19;5074425;28;20055;-53
2020/12/25 03:56:27;;;;;;;19.67;16.08;;;;;;;20.31;27.83;94034.19;5074613;28;20055;-53
2020/12/25 03:58:54;;;;;;;20.23;16.20;;;;;;;20.48;27.66;94032.19;5074117;28;20052;-55
2020/12/25 04:01:22;;;;;;;22.17;16.63;;;;;;;20.48;27.47;94035.59;5074418;28;20053;-53
2020/12/25 04:03:49;;;;;;;22.58;16.33;;;;;;;20.31;27.42;94031.53;5060195;28;20053;-55
2020/12/25 04:06:16;;;;;;;23.63;16.83;;;;;;;20.55;27.37;94035.72;5054435;28;20060;-54
2020/12/25 04:08:44;;;;;;;22.58;17.25;;;;;;;20.32;27.68;94038.38;5055722;28;20051;-53
2020/12/25 04:11:11;;;;;;;21.73;16.92;;;;;;;20.32;27.50;94029.66;5074449;28;20048;-53
2020/12/25 04:13:39;;;;;;;22.40;17.52;;;;;;;20.25;27.64;94027.63;5074195;28;20357;-53
2020/12/25 04:16:06;;;;;;;18.77;15.65;;;;;;;21.20;26.65;94038.16;5074180;28;20052;-54
2020/12/25 04:18:33;;;;;;;18.20;15.02;;;;;;;22.27;25.12;94034.00;5064906;28;20045;-52
2020/12/25 04:21:00;;;;;;;18.65;15.23;;;;;;;21.22;26.34;94025.25;5055257;28;20363;-51
2020/12/25 04:23:30;;;;;;;20.35;16.15;;;;;;;20.62;26.88;94029.75;5054000;28;20048;-56
2020/12/25 04:25:57;;;;;;;17.85;14.50;;;;;;;20.86;26.97;94033.91;5054110;28;20045;-53
2020/12/25 04:28:24;;;;;;;18.52;16.38;;;;;;;21.15;26.26;94035.03;5054008;28;20048;-53
2020/12/25 04:30:51;;;;;;;17.77;14.95;;;;;;;21.69;25.48;94052.41;5072315;28;20049;-54
2020/12/25 04:33:18;;;;;;;16.08;12.57;;;;;;;23.07;24.04;94036.88;5063337;28;20459;-54
2020/12/25 04:35:46;;;;;;;17.80;14.27;;;;;;;22.18;24.92;94054.09;5053324;28;20056;-53
2020/12/25 04:38:13;;;;;;;18.27;14.30;;;;;;;22.35;24.52;94045.47;5052917;28;20049;-54
2020/12/25 04:40:45;;;;;;;18.90;14.40;;;;;;;21.00;26.33;94051.91;5069075;28;20056;-58
2020/12/25 04:43:13;;;;;;;22.27;18.25;;;;;;;21.31;26.05;94046.25;5053356;28;20063;-55
2020/12/25 04:45:40;;;;;;;19.98;17.13;;;;;;;20.77;26.54;94051.97;5052359;28;20041;-58
2020/12/25 04:48:08;;;;;;;25.20;19.30;;;;;;;20.58;27.24;94055.50;5052064;28;20048;-61
2020/12/25 04:50:36;;;;;;;20.65;16.65;;;;;;;20.24;27.78;94052.63;5068164;28;20482;-53
2020/12/25 04:53:03;;;;;;;19.42;16.27;;;;;;;20.03;27.97;94055.69;5037196;28;20459;-53
2020/12/25 04:55:30;;;;;;;22.67;15.88;;;;;;;20.15;27.81;94052.13;5052954;28;20467;-52
2020/12/25 04:57:58;;;;;;;18.45;14.55;;;;;;;20.02;28.19;94034.81;5053133;28;20057;-56
2020/12/25 05:00:27;;;;;;;18.35;14.55;;;;;;;20.71;27.00;94048.84;5067362;28;20063;-55
2020/12/25 05:02:54;;;;;;;19.33;15.13;;;;;;;20.21;27.63;94048.03;5066893;28;20053;-53
2020/12/25 05:05:29;;;;;;;19.45;15.27;;;;;;;20.24;27.56;94052.63;5053753;28;20345;-52
2020/12/25 05:07:57;;;;;;;19.52;15.00;;;;;;;19.78;28.18;94035.16;5052524;28;20380;-52
2020/12/25 05:10:25;;;;;;;19.38;15.70;;;;;;;20.07;28.01;94057.66;5067165;28;20351;-52
2020/12/25 05:12:52;;;;;;;21.17;17.15;;;;;;;19.46;28.25;94056.50;5073611;28;20431;-52
2020/12/25 05:15:19;;;;;;;22.77;17.88;;;;;;;19.40;28.45;94055.25;5073590;28;20048;-55
2020/12/25 05:17:47;;;;;;;24.35;19.10;;;;;;;19.38;28.63;94054.84;5073563;28;20048;-54
2020/12/25 05:20:14;;;;;;;23.42;17.17;;;;;;;19.74;28.38;94060.84;5050335;28;20474;-51
2020/12/25 05:22:41;;;;;;;22.13;18.67;;;;;;;19.42;28.58;94055.66;5053604;28;20102;-54
2020/12/25 05:25:08;;;;;;;22.30;18.25;;;;;;;19.63;28.74;94055.34;5053437;28;20045;-54
2020/12/25 05:27:35;;;;;;;21.15;17.13;;;;;;;19.80;28.34;94060.22;5053546;28;20052;-56
2020/12/25 05:30:05;;;;;;;19.52;16.52;;;;;;;20.45;27.07;94056.78;5063258;28;20052;-54
2020/12/25 05:32:34;;;;;;;20.48;17.98;;;;;;;19.51;28.37;94045.59;5069826;28;20049;-53
2020/12/25 05:35:02;;;;;;;18.92;15.18;;;;;;;20.93;26.81;94040.06;5053422;28;20048;-51
2020/12/25 05:37:36;;;;;;;18.70;15.45;;;;;;;21.56;25.56;94043.91;5057549;28;20052;-53
2020/12/25 05:40:05;;;;;;;21.48;16.98;;;;;;;21.64;25.43;94045.53;5054218;28;20052;-53
2020/12/25 05:42:45;;;;;;;16.30;12.93;;;;;;;22.58;24.39;94038.06;5053353;28;20045;-55
2020/12/25 05:45:20;;;;;;;16.85;13.60;;;;;;;21.36;26.03;94050.53;5052354;28;20044;-58
2020/12/25 05:47:48;;;;;;;18.35;13.90;;;;;;;21.91;25.38;94037.44;5052884;28;20371;-53
2020/12/25 05:50:20;;;;;;;18.48;14.50;;;;;;;21.80;25.30;94053.28;5063268;28;20048;-58
2020/12/25 05:52:48;;;;;;;19.75;15.95;;;;;;;20.27;27.30;94057.22;5073462;28;20047;-53
2020/12/25 05:55:18;;;;;;;21.52;17.25;;;;;;;19.87;28.10;94060.34;5057706;28;20079;-52
2020/12/25 05:57:50;;;;;;;22.85;17.30;;;;;;;19.73;28.29;94059.31;5052948;28;20056;-76
2020/12/25 06:00:19;;;;;;;22.45;17.33;;;;;;;19.57;28.36;94057.53;5064538;28;20371;-51
2020/12/25 06:02:50;;;;;;;24.55;16.50;;;;;;;20.30;27.58;94061.88;5058157;28;20051;-56
2020/12/25 06:05:18;;;;;;;20.40;17.05;;;;;;;20.16;27.48;94072.22;5075670;28;20051;-55
2020/12/25 06:07:54;;;;;;;21.25;16.50;;;;;;;19.87;27.85;94070.19;5076304;28;20056;-55
2020/12/25 06:10:23;;;;;;;20.10;15.57;;;;;;;20.20;27.62;94072.28;5076229;28;20045;-55
2020/12/25 06:12:51;;;;;;;20.45;16.17;;;;;;;19.99;27.86;94077.97;5065225;28;20075;-59
2020/12/25 06:15:26;;;;;;;22.20;16.88;;;;;;;19.06;29.12;94081.44;5076089;28;20048;-57
2020/12/25 06:18:08;;;;;;;23.02;18.35;;;;;;;19.68;28.48;94090.28;5076062;28;20048;-53
2020/12/25 06:20:51;;;;;;;21.55;16.90;;;;;;;20.17;27.51;94092.34;5075988;28;20053;-54
2020/12/25 06:23:21;;;;;;;18.55;15.27;;;;;;;20.37;27.54;94087.75;5064615;28;20454;-55
2020/12/25 06:25:51;;;;;;;21.70;18.80;;;;;;;20.45;26.87;94099.28;5066877;28;20427;-54
2020/12/25 06:28:21;;;;;;;21.23;16.77;;;;;;;21.19;26.36;94099.63;5075914;28;20048;-56
2020/12/25 06:30:48;;;;;;;19.35;15.57;;;;;;;21.03;26.44;94104.34;5073139;28;20055;-53
2020/12/25 06:33:16;;;;;;;17.35;13.70;;;;;;;21.88;25.49;94110.03;5075523;28;20052;-53
2020/12/25 06:35:47;;;;;;;16.75;14.88;;;;;;;21.34;26.17;94105.94;5074224;28;20060;-51
2020/12/25 06:38:21;;;;;;;17.85;15.57;;;;;;;20.99;26.74;94106.19;5075646;28;20108;-56
2020/12/25 06:40:48;;;;;;;23.92;21.33;;;;;;;22.18;24.86;94097.44;5073736;28;20060;-55
2020/12/25 06:43:17;;;;;;;18.40;14.77;;;;;;;22.70;24.04;94099.06;5066912;28;20440;-55
2020/12/25 06:46:03;;;;;;;19.50;14.57;;;;;;;21.07;26.57;94107.81;5055996;28;20045;-54
2020/12/25 06:48:30;;;;;;;20.25;16.92;;;;;;;21.93;25.21;94115.78;5070152;28;20067;-61
2020/12/25 06:51:01;;;;;;;20.98;17.33;;;;;;;21.69;25.61;94110.94;5075003;28;20059;-51
2020/12/25 06:53:40;;;;;;;21.63;16.73;;;;;;;21.52;25.68;94102.38;5075980;28;20513;-67
2020/12/25 06:56:18;;;;;;;24.40;21.63;;;;;;;22.75;24.05;94112.03;5076088;28;20048;-55
2020/12/25 06:58:50;;;;;;;21.58;19.27;;;;;;;22.34;24.44;94092.63;5067195;28;20059;-51
2020/12/25 07:01:32;;;;;;;18.33;15.55;;;;;;;22.53;24.32;94094.34;5074359;28;20052;-53
2020/12/25 07:04:00;;;;;;;21.50;16.48;;;;;;;21.83;25.53;94101.22;5068714;28;20052;-53
2020/12/25 07:06:32;;;;;;;19.35;15.90;;;;;;;21.23;26.26;94095.13;5073685;28;20460;-51
2020/12/25 07:09:12;;;;;;;17.70;15.32;;;;;;;21.39;26.08;94071.84;5056676;28;20048;-54
2020/12/25 07:11:39;;;;;;;20.23;16.55;;;;;;;21.25;26.76;94087.59;5074419;28;20060;-51
2020/12/25 07:14:09;;;;;;;17.58;15.60;;;;;;;21.07;26.80;94081.22;5074454;28;20059;-52
2020/12/25 07:16:36;;;;;;;18.83;16.40;;;;;;;21.02;27.51;94090.28;5073415;28;20052;-56
2020/12/25 07:19:04;;;;;;;20.50;14.80;;;;;;;21.05;27.65;94083.47;5074358;28;20059;-53
2020/12/25 07:21:31;;;;;;;16.50;14.13;;;;;;;21.46;27.06;94076.47;5074798;28;20063;-52
2020/12/25 07:23:59;;;;;;;19.35;14.35;;;;;;;21.30;27.27;94068.66;5075063;28;20048;-56
2020/12/25 07:26:26;;;;;;;17.60;15.48;;;;;;;21.35;26.89;94076.34;5075231;28;20055;-54
2020/12/25 07:28:54;;;;;;;17.17;13.77;;;;;;;21.23;27.03;94092.47;5074958;28;20040;-55
2020/12/25 07:31:21;;;;;;;17.75;13.45;;;;;;;21.43;26.53;94099.22;5057263;28;20435;-54
2020/12/25 07:33:55;;;;;;;22.92;19.55;;;;;;;21.68;26.09;94102.19;5060857;28;20057;-55
2020/12/25 07:36:25;;;;;;;19.60;15.05;;;;;;;21.63;26.79;94107.06;5054059;28;20448;-54
2020/12/25 07:39:03;;;;;;;18.85;15.00;;;;;;;21.60;26.51;94107.78;5055011;28;20052;-55
2020/12/25 07:41:32;;;;;;;18.50;14.98;;;;;;;21.46;26.37;94106.47;5072838;28;20048;-55
2020/12/25 07:43:59;;;;;;;24.45;14.10;;;;;;;21.44;27.24;94100.00;5074819;28;20052;-54
2020/12/25 07:46:27;;;;;;;17.27;14.30;;;;;;;22.15;26.42;94117.59;5074895;28;20051;-52
2020/12/25 07:48:58;;;;;;;15.77;13.38;;;;;;;22.30;25.67;94112.38;5063843;28;20056;-55
2020/12/25 07:51:25;;;;;;;23.33;16.02;;;;;;;21.74;27.66;94110.63;5074422;28;20362;-53
2020/12/25 07:53:55;;;;;;;26.42;20.02;;;;;;;21.78;27.33;94108.75;5074519;28;20052;-54
2020/12/25 07:56:23;;;;;;;22.13;19.58;;;;;;;21.68;26.96;94104.84;5074575;28;20061;-48
2020/12/25 07:58:51;;;;;;;26.88;20.05;;;;;;;21.53;27.23;94095.94;5074395;28;20139;-48
2020/12/25 08:01:19;;;;;;;25.65;20.70;;;;;;;21.88;27.27;94108.13;5074314;28;20063;-55
2020/12/25 08:03:47;;;;;;;34.72;28.35;;;;;;;21.60;26.70;94107.78;5060358;28;20056;-53
2020/12/25 08:06:15;;;;;;;36.78;30.17;;;;;;;21.92;26.50;94108.94;5054909;28;20048;-54
2020/12/25 08:08:45;;;;;;;44.72;36.90;;;;;;;22.18;25.74;94110.75;5054787;28;20458;-52
2020/12/25 08:11:14;;;;;;;35.10;29.35;;;;;;;22.19;26.14;94119.50;5053113;28;20056;-52
2020/12/25 08:13:42;;;;;;;29.52;25.40;;;;;;;22.36;25.91;94122.31;5054512;28;20049;-53
2020/12/25 08:16:10;;;;;;;32.22;25.55;;;;;;;22.41;26.34;94129.25;5053359;28;20056;-52
2020/12/25 08:18:38;;;;;;;33.65;27.80;;;;;;;21.99;26.63;94113.56;5054070;28;20049;-55
2020/12/25 08:21:05;;;;;;;29.70;25.02;;;;;;;22.13;26.20;94109.19;5067213;28;20478;-52
2020/12/25 08:23:34;;;;;;;46.35;37.60;;;;;;;22.07;26.65;94115.19;5073998;28;20382;-52
2020/12/25 08:26:04;;;;;;;48.75;41.20;;;;;;;21.90;26.54;94113.84;5074145;28;20044;-53
2020/12/25 08:28:32;;;;;;;41.80;33.83;;;;;;;21.94;26.29;94116.56;5073604;28;20044;-53
2020/12/25 08:31:12;;;;;;;33.50;29.88;;;;;;;21.84;26.30;94120.59;5073783;28;20055;-53
2020/12/25 08:33:40;;;;;;;36.20;31.17;;;;;;;22.00;26.54;94099.13;5060751;28;20053;-54
2020/12/25 08:36:10;;;;;;;37.50;32.22;;;;;;;21.83;26.84;94111.09;5054030;28;20060;-53
2020/12/25 08:38:44;;;;;;;38.08;32.08;;;;;;;22.30;26.27;94102.50;5053797;28;20071;-53
2020/12/25 08:41:11;;;;;;;37.35;30.33;;;;;;;22.23;26.39;94112.31;5067457;28;20048;-52
2020/12/25 08:43:38;;;;;;;34.72;29.42;;;;;;;22.13;26.29;94114.53;5073697;28;20052;-54
2020/12/25 08:46:05;;;;;;;35.17;29.50;;;;;;;22.24;26.42;94111.19;5074029;28;20055;-51
2020/12/25 08:48:34;;;;;;;36.95;29.48;;;;;;;22.27;27.29;94099.81;5073741;28;20371;-54
2020/12/25 08:51:08;;;;;;;36.58;29.73;;;;;;;22.27;26.65;94105.13;5072485;28;20044;-52
2020/12/25 08:53:36;;;;;;;33.75;28.13;;;;;;;22.30;26.35;94105.16;5053647;28;20056;-54
2020/12/25 08:56:34;;;;;;;30.75;26.55;;;;;;;22.03;26.61;94101.81;5052663;28;20056;-52
2020/12/25 08:59:05;;;;;;;29.70;25.83;;;;;;;22.36;26.34;94093.03;5038047;28;20067;-54
2020/12/25 09:01:34;;;;;;;29.17;22.33;;;;;;;22.44;25.46;94092.00;5069372;28;20352;-52
2020/12/25 09:04:03;;;;;;;21.65;19.08;;;;;;;22.22;26.10;94081.50;5057619;28;20055;-52
2020/12/25 09:06:30;;;;;;;24.45;19.98;;;;;;;22.27;26.09;94092.59;5053839;28;20391;-54
2020/12/25 09:08:57;;;;;;;28.17;22.90;;;;;;;22.32;26.01;94078.16;5055025;28;20052;-54
2020/12/25 09:11:25;;;;;;;25.40;21.30;;;;;;;22.35;25.66;94075.53;5064634;28;20048;-51
2020/12/25 09:13:53;;;;;;;24.75;21.95;;;;;;;22.19;26.20;94052.97;5073924;28;20067;-50
2020/12/25 09:16:20;;;;;;;27.38;23.08;;;;;;;22.45;25.90;94071.44;5074125;28;20051;-52
2020/12/25 09:18:47;;;;;;;31.25;25.50;;;;;;;22.91;25.51;94060.41;5073758;28;20052;-55
2020/12/25 09:21:15;;;;;;;28.38;22.88;;;;;;;22.64;25.83;94057.13;5073290;28;20045;-52
2020/12/25 09:23:43;;;;;;;30.58;23.25;;;;;;;22.45;26.14;94058.91;5073495;28;20482;-52
2020/12/25 09:26:11;;;;;;;29.42;22.77;;;;;;;22.73;25.63;94055.69;5073487;28;20044;-52
2020/12/25 09:28:38;;;;;;;30.02;22.85;;;;;;;22.86;25.52;94048.16;5060362;28;20060;-52
2020/12/25 09:31:07;;;;;;;31.67;24.80;;;;;;;22.51;26.31;94040.66;5064392;28;20045;-53
2020/12/25 09:33:35;;;;;;;29.23;23.90;;;;;;;22.77;25.68;94050.38;5060652;28;20049;-55
2020/12/25 09:36:06;;;;;;;30.25;24.35;;;;;;;22.95;25.65;94050.53;5072089;28;20259;-52
2020/12/25 09:38:34;;;;;;;31.80;23.60;;;;;;;23.04;25.67;94037.63;5073533;28;20107;-51
2020/12/25 09:41:01;;;;;;;29.42;22.60;;;;;;;23.30;25.64;94034.72;5077079;28;20370;-54
2020/12/25 09:43:29;;;;;;;26.80;21.92;;;;;;;23.34;24.83;94034.72;5077095;28;20481;-53
2020/12/25 09:45:57;;;;;;;25.65;20.58;;;;;;;23.41;24.88;94033.97;5077122;28;20423;-53
2020/12/25 09:48:25;;;;;;;22.77;19.20;;;;;;;22.96;25.28;94022.75;5075000;28;20059;-58
2020/12/25 09:50:52;;;;;;;24.58;19.40;;;;;;;23.23;24.90;94024.03;5076660;28;20390;-53
2020/12/25 09:53:19;;;;;;;22.38;19.50;;;;;;;24.19;23.18;94026.22;5074521;28;20473;-59
2020/12/25 09:55:48;;;;;;;24.77;19.38;;;;;;;23.92;24.21;94012.44;5063492;28;20051;-55
2020/12/25 09:58:16;;;;;;;20.75;17.90;;;;;;;23.95;23.89;94004.47;5075920;28;20048;-55
2020/12/25 10:00:43;;;;;;;21.17;18.48;;;;;;;23.88;23.80;93996.41;5076687;28;20044;-55
2020/12/25 10:03:10;;;;;;;21.77;18.70;;;;;;;23.88;23.64;93998.31;5068069;28;20057;-54
2020/12/25 10:05:37;;;;;;;25.50;19.45;;;;;;;23.26;25.08;93991.28;5075766;28;20071;-54
2020/12/25 10:08:04;;;;;;;21.13;16.90;;;;;;;23.24;24.51;93982.13;5076696;28;20056;-53
2020/12/25 10:10:32;;;;;;;16.63;13.88;;;;;;;23.42;24.16;93977.63;5077141;28;20044;-55
2020/12/25 10:12:59;;;;;;;17.50;15.20;;;;;;;23.22;24.66;93985.16;5076774;28;20048;-54
2020/12/25 10:15:27;;;;;;;18.85;15.70;;;;;;;23.82;24.31;93973.91;5076620;28;20320;-53
2020/12/25 10:17:54;;;;;;;25.10;18.23;;;;;;;23.51;24.03;93971.91;5076330;28;20067;-56
2020/12/25 10:20:21;;;;;;;24.95;20.05;;;;;;;23.65;24.06;93974.63;5076669;28;20050;-55
2020/12/25 10:22:48;;;;;;;23.85;18.45;;;;;;;23.88;23.78;93969.72;5076670;28;20071;-54
2020/12/25 10:25:15;;;;;;;24.85;18.50;;;;;;;24.12;23.47;93956.78;5076602;28;20040;-55
2020/12/25 10:27:42;;;;;;;21.73;17.98;;;;;;;23.83;23.72;93975.44;5076399;28;20055;-53
2020/12/25 10:30:10;;;;;;;18.75;15.50;;;;;;;23.86;23.60;93956.00;5076401;28;20398;-54
2020/12/25 10:32:37;;;;;;;19.17;14.55;;;;;;;23.64;23.70;93949.09;5076368;28;20059;-54
2020/12/25 10:35:04;;;;;;;21.08;15.38;;;;;;;23.93;24.29;93947.22;5076212;28;20047;-54
2020/12/25 10:37:31;;;;;;;19.77;14.52;;;;;;;24.17;23.98;93948.38;5075937;28;20068;-56
2020/12/25 10:39:58;;;;;;;20.85;15.52;;;;;;;23.97;23.81;93948.78;5075813;28;20045;-53
2020/12/25 10:42:25;;;;;;;17.75;14.95;;;;;;;24.04;23.95;93952.59;5065406;28;20049;-53
2020/12/25 10:44:52;;;;;;;21.42;16.23;;;;;;;24.25;23.29;93942.69;5055001;28;20045;-57
2020/12/25 10:47:19;;;;;;;20.83;16.20;;;;;;;24.45;23.10;93951.06;5055895;28;20056;-56
2020/12/25 10:49:46;;;;;;;23.75;19.02;;;;;;;24.22;23.25;93948.78;5071086;28;20044;-55
2020/12/25 10:52:13;;;;;;;32.58;24.20;;;;;;;24.32;23.30;93933.16;5075935;28;20059;-56
2020/12/25 10:54:40;;;;;;;36.47;28.20;;;;;;;24.39;23.44;93925.88;5075910;28;20051;-57
2020/12/25 10:57:07;;;;;;;46.33;34.00;;;;;;;24.22;23.82;93915.97;5076131;28;20488;-56
2020/12/25 10:59:34;;;;;;;36.00;27.65;;;;;;;24.44;23.51;93922.81;5075509;28;20052;-54
2020/12/25 11:02:02;;;;;;;30.15;25.20;;;;;;;24.27;23.01;93912.91;5075903;28;20447;-54
2020/12/25 11:04:29;;;;;;;27.55;24.25;;;;;;;24.60;22.87;93925.09;5055797;28;20056;-54
2020/12/25 11:06:56;;;;;;;24.50;21.05;;;;;;;24.37;23.11;93912.16;5055674;28;20048;-55
2020/12/25 11:09:23;;;;;;;28.48;24.52;;;;;;;24.58;23.12;93912.13;5067097;28;20055;-56
2020/12/25 11:11:50;;;;;;;24.25;20.83;;;;;;;24.41;23.14;93896.88;5075861;28;20059;-55
2020/12/25 11:14:17;;;;;;;25.23;20.33;;;;;;;24.45;23.38;93896.88;5058682;28;20056;-56
2020/12/25 11:16:44;;;;;;;21.77;18.15;;;;;;;24.67;23.30;93903.69;5055449;28;20052;-58
2020/12/25 11:19:13;;;;;;;21.00;18.02;;;;;;;24.80;22.90;93890.69;5064849;28;20048;-54
2020/12/25 11:21:40;;;;;;;21.08;17.92;;;;;;;24.89;22.72;93885.69;5075103;28;20051;-56
2020/12/25 11:24:07;;;;;;;22.42;18.90;;;;;;;24.90;22.58;93884.53;5075241;28;20051;-59